sensor_id;sensor_type;location;lat;lon;timestamp;temperature;humidity
23291;DHT22;11814;44.686;10.842;2022-12-07T00:01:18;7.90;99.90
23291;DHT22;11814;44.686;10.842;2022-12-07T00:03:45;7.80;99.90
23291;DHT22;11814;44.686;10.842;2022-12-07T00:06:13;7.80;99.90
23291;DHT22;11814;44.686;10.842;2022-12-07T00:08:40;7.80;99.90
23291;DHT22;11814;44.686;10.842;2022-12-07T00:11:11;7.80;99.90
23291;DHT22;11814;44.686;10.842;2022-12-07T00:13:38;7.80;99.90
23291;DHT22;11814;44.686;10.842;2022-12-07T00:16:07;7.80;99.90
23291;DHT22;11814;44.686;10.842;2022-12-07T00:18:33;7.80;99.90
23291;DHT22;11814;44.686;10.842;2022-12-07T00:21:11;7.80;99.90
23291;DHT22;11814;44.686;10.842;2022-12-07T00:23:37;7.80;99.90
23291;DHT22;11814;44.686;10.842;2022-12-07T00:26:11;7.80;99.90
23291;DHT22;11814;44.686;10.842;2022-12-07T00:28:37;7.80;99.90
23291;DHT22;11814;44.686;10.842;2022-12-07T00:31:08;7.80;99.90
23291;DHT22;11814;44.686;10.842;2022-12-07T00:33:35;7.70;99.90
23291;DHT22;11814;44.686;10.842;2022-12-07T00:36:03;7.70;99.90
23291;DHT22;11814;44.686;10.842;2022-12-07T00:38:33;7.70;99.90
23291;DHT22;11814;44.686;10.842;2022-12-07T00:41:01;7.70;99.90
23291;DHT22;11814;44.686;10.842;2022-12-07T00:43:27;7.70;99.90
23291;DHT22;11814;44.686;10.842;2022-12-07T00:45:53;7.70;99.90
23291;DHT22;11814;44.686;10.842;2022-12-07T00:48:20;7.70;99.90
23291;DHT22;11814;44.686;10.842;2022-12-07T00:50:46;7.70;99.90
23291;DHT22;11814;44.686;10.842;2022-12-07T00:53:12;7.70;99.90
23291;DHT22;11814;44.686;10.842;2022-12-07T00:55:38;7.70;99.90
23291;DHT22;11814;44.686;10.842;2022-12-07T00:58:04;7.70;99.90
23291;DHT22;11814;44.686;10.842;2022-12-07T01:00:30;7.70;99.90
23291;DHT22;11814;44.686;10.842;2022-12-07T01:02:56;7.70;99.90
23291;DHT22;11814;44.686;10.842;2022-12-07T01:05:21;7.70;99.90
23291;DHT22;11814;44.686;10.842;2022-12-07T01:07:47;7.70;99.90
23291;DHT22;11814;44.686;10.842;2022-12-07T01:10:13;7.70;99.90
23291;DHT22;11814;44.686;10.842;2022-12-07T01:12:40;7.70;99.90
23291;DHT22;11814;44.686;10.842;2022-12-07T01:15:06;7.70;99.90
23291;DHT22;11814;44.686;10.842;2022-12-07T01:17:32;7.70;99.90
23291;DHT22;11814;44.686;10.842;2022-12-07T01:19:57;7.60;99.90
23291;DHT22;11814;44.686;10.842;2022-12-07T01:22:23;7.70;99.90
23291;DHT22;11814;44.686;10.842;2022-12-07T01:24:49;7.70;99.90
23291;DHT22;11814;44.686;10.842;2022-12-07T01:27:15;7.70;99.90
23291;DHT22;11814;44.686;10.842;2022-12-07T01:29:40;7.70;99.90
23291;DHT22;11814;44.686;10.842;2022-12-07T01:32:06;7.70;99.90
23291;DHT22;11814;44.686;10.842;2022-12-07T01:34:32;7.70;99.90
23291;DHT22;11814;44.686;10.842;2022-12-07T01:36:57;7.70;99.90
23291;DHT22;11814;44.686;10.842;2022-12-07T01:39:23;7.70;99.90
23291;DHT22;11814;44.686;10.842;2022-12-07T01:41:49;7.70;99.90
23291;DHT22;11814;44.686;10.842;2022-12-07T01:44:25;7.70;99.90
23291;DHT22;11814;44.686;10.842;2022-12-07T01:46:54;7.80;99.90
23291;DHT22;11814;44.686;10.842;2022-12-07T01:49:40;7.80;99.90
23291;DHT22;11814;44.686;10.842;2022-12-07T01:52:24;7.80;99.90
23291;DHT22;11814;44.686;10.842;2022-12-07T01:54:54;7.80;99.90
23291;DHT22;11814;44.686;10.842;2022-12-07T01:57:21;7.80;99.90
23291;DHT22;11814;44.686;10.842;2022-12-07T01:59:49;7.80;99.90
23291;DHT22;11814;44.686;10.842;2022-12-07T02:02:34;7.80;99.90
23291;DHT22;11814;44.686;10.842;2022-12-07T02:05:01;7.80;99.90
23291;DHT22;11814;44.686;10.842;2022-12-07T02:07:29;7.80;99.90
23291;DHT22;11814;44.686;10.842;2022-12-07T02:09:55;7.80;99.90
23291;DHT22;11814;44.686;10.842;2022-12-07T02:12:21;7.80;99.90
23291;DHT22;11814;44.686;10.842;2022-12-07T02:14:48;7.80;99.90
23291;DHT22;11814;44.686;10.842;2022-12-07T02:17:34;7.80;99.90
23291;DHT22;11814;44.686;10.842;2022-12-07T02:20:59;7.80;99.90
23291;DHT22;11814;44.686;10.842;2022-12-07T02:28:56;7.80;99.90
23291;DHT22;11814;44.686;10.842;2022-12-07T02:31:30;7.80;99.90
23291;DHT22;11814;44.686;10.842;2022-12-07T02:34:09;7.80;99.90
23291;DHT22;11814;44.686;10.842;2022-12-07T02:36:43;7.80;99.90
23291;DHT22;11814;44.686;10.842;2022-12-07T02:39:19;7.80;99.90
23291;DHT22;11814;44.686;10.842;2022-12-07T02:41:56;7.80;99.90
23291;DHT22;11814;44.686;10.842;2022-12-07T02:44:26;7.80;99.90
23291;DHT22;11814;44.686;10.842;2022-12-07T02:47:05;7.80;99.90
23291;DHT22;11814;44.686;10.842;2022-12-07T02:49:32;7.80;99.90
23291;DHT22;11814;44.686;10.842;2022-12-07T02:51:58;7.80;99.90
23291;DHT22;11814;44.686;10.842;2022-12-07T02:54:24;7.80;99.90
23291;DHT22;11814;44.686;10.842;2022-12-07T03:02:49;7.80;99.90
23291;DHT22;11814;44.686;10.842;2022-12-07T03:10:58;7.80;99.90
23291;DHT22;11814;44.686;10.842;2022-12-07T03:19:24;7.80;99.90
23291;DHT22;11814;44.686;10.842;2022-12-07T03:21:46;7.80;99.90
23291;DHT22;11814;44.686;10.842;2022-12-07T03:24:15;7.80;99.90
23291;DHT22;11814;44.686;10.842;2022-12-07T03:27:07;7.80;99.90
23291;DHT22;11814;44.686;10.842;2022-12-07T03:29:37;7.80;99.90
23291;DHT22;11814;44.686;10.842;2022-12-07T03:32:13;7.90;99.90
23291;DHT22;11814;44.686;10.842;2022-12-07T03:34:47;7.80;99.90
23291;DHT22;11814;44.686;10.842;2022-12-07T03:37:26;7.80;99.90
23291;DHT22;11814;44.686;10.842;2022-12-07T03:39:59;7.90;99.90
23291;DHT22;11814;44.686;10.842;2022-12-07T03:42:27;7.90;99.90
23291;DHT22;11814;44.686;10.842;2022-12-07T03:44:53;7.90;99.90
23291;DHT22;11814;44.686;10.842;2022-12-07T03:52:59;7.90;99.90
23291;DHT22;11814;44.686;10.842;2022-12-07T03:55:33;7.90;99.90
23291;DHT22;11814;44.686;10.842;2022-12-07T03:58:07;7.80;99.90
23291;DHT22;11814;44.686;10.842;2022-12-07T04:00:33;7.80;99.90
23291;DHT22;11814;44.686;10.842;2022-12-07T04:02:59;7.80;99.90
23291;DHT22;11814;44.686;10.842;2022-12-07T04:05:25;7.80;99.90
23291;DHT22;11814;44.686;10.842;2022-12-07T04:07:51;7.80;99.90
23291;DHT22;11814;44.686;10.842;2022-12-07T04:10:17;7.80;99.90
23291;DHT22;11814;44.686;10.842;2022-12-07T04:12:43;7.90;99.90
23291;DHT22;11814;44.686;10.842;2022-12-07T04:15:09;7.80;99.90
23291;DHT22;11814;44.686;10.842;2022-12-07T04:17:35;7.80;99.90
23291;DHT22;11814;44.686;10.842;2022-12-07T04:20:01;7.70;99.90
23291;DHT22;11814;44.686;10.842;2022-12-07T04:22:26;7.80;99.90
23291;DHT22;11814;44.686;10.842;2022-12-07T04:24:53;7.80;99.90
23291;DHT22;11814;44.686;10.842;2022-12-07T04:27:19;7.80;99.90
23291;DHT22;11814;44.686;10.842;2022-12-07T04:29:44;7.80;99.90
23291;DHT22;11814;44.686;10.842;2022-12-07T04:32:10;7.80;99.90
23291;DHT22;11814;44.686;10.842;2022-12-07T04:34:36;7.80;99.90
23291;DHT22;11814;44.686;10.842;2022-12-07T04:37:01;7.80;99.90
23291;DHT22;11814;44.686;10.842;2022-12-07T04:39:29;7.70;99.90
23291;DHT22;11814;44.686;10.842;2022-12-07T04:41:55;7.80;99.90
23291;DHT22;11814;44.686;10.842;2022-12-07T04:44:22;7.80;99.90
23291;DHT22;11814;44.686;10.842;2022-12-07T04:46:48;7.70;99.90
23291;DHT22;11814;44.686;10.842;2022-12-07T04:49:14;7.70;99.90
23291;DHT22;11814;44.686;10.842;2022-12-07T04:51:41;7.70;99.90
23291;DHT22;11814;44.686;10.842;2022-12-07T04:54:07;7.70;99.90
23291;DHT22;11814;44.686;10.842;2022-12-07T04:56:33;7.70;99.90
23291;DHT22;11814;44.686;10.842;2022-12-07T04:59:00;7.70;99.90
23291;DHT22;11814;44.686;10.842;2022-12-07T05:01:26;7.70;99.90
23291;DHT22;11814;44.686;10.842;2022-12-07T05:03:52;7.70;99.90
23291;DHT22;11814;44.686;10.842;2022-12-07T05:06:18;7.70;99.90
23291;DHT22;11814;44.686;10.842;2022-12-07T05:08:44;7.70;99.90
23291;DHT22;11814;44.686;10.842;2022-12-07T05:11:10;7.70;99.90
23291;DHT22;11814;44.686;10.842;2022-12-07T05:13:56;7.70;99.90
23291;DHT22;11814;44.686;10.842;2022-12-07T05:16:22;7.70;99.90
23291;DHT22;11814;44.686;10.842;2022-12-07T05:18:48;7.70;99.90
23291;DHT22;11814;44.686;10.842;2022-12-07T05:21:13;7.70;99.90
23291;DHT22;11814;44.686;10.842;2022-12-07T05:23:39;7.70;99.90
23291;DHT22;11814;44.686;10.842;2022-12-07T05:26:05;7.70;99.90
23291;DHT22;11814;44.686;10.842;2022-12-07T05:28:30;7.70;99.90
23291;DHT22;11814;44.686;10.842;2022-12-07T05:30:56;7.70;99.90
23291;DHT22;11814;44.686;10.842;2022-12-07T05:33:21;7.70;99.90
23291;DHT22;11814;44.686;10.842;2022-12-07T05:35:47;7.70;99.90
23291;DHT22;11814;44.686;10.842;2022-12-07T05:38:13;7.70;99.90
23291;DHT22;11814;44.686;10.842;2022-12-07T05:40:38;7.70;99.90
23291;DHT22;11814;44.686;10.842;2022-12-07T05:43:04;7.70;99.90
23291;DHT22;11814;44.686;10.842;2022-12-07T05:45:30;7.70;99.90
23291;DHT22;11814;44.686;10.842;2022-12-07T05:47:55;7.70;99.90
23291;DHT22;11814;44.686;10.842;2022-12-07T05:50:21;7.70;99.90
23291;DHT22;11814;44.686;10.842;2022-12-07T05:52:46;7.70;99.90
23291;DHT22;11814;44.686;10.842;2022-12-07T05:55:12;7.70;99.90
23291;DHT22;11814;44.686;10.842;2022-12-07T05:57:38;7.70;99.90
23291;DHT22;11814;44.686;10.842;2022-12-07T06:00:04;7.70;99.90
23291;DHT22;11814;44.686;10.842;2022-12-07T06:02:30;7.80;99.90
23291;DHT22;11814;44.686;10.842;2022-12-07T06:04:56;7.80;99.90
23291;DHT22;11814;44.686;10.842;2022-12-07T06:07:21;7.80;99.90
23291;DHT22;11814;44.686;10.842;2022-12-07T06:09:47;7.80;99.90
23291;DHT22;11814;44.686;10.842;2022-12-07T06:12:13;7.80;99.90
23291;DHT22;11814;44.686;10.842;2022-12-07T06:14:58;7.80;99.90
23291;DHT22;11814;44.686;10.842;2022-12-07T06:17:23;7.80;99.90
23291;DHT22;11814;44.686;10.842;2022-12-07T06:19:49;7.70;99.90
23291;DHT22;11814;44.686;10.842;2022-12-07T06:22:15;7.70;99.90
23291;DHT22;11814;44.686;10.842;2022-12-07T06:24:41;7.70;99.90
23291;DHT22;11814;44.686;10.842;2022-12-07T06:27:08;7.70;99.90
23291;DHT22;11814;44.686;10.842;2022-12-07T06:29:34;7.70;99.90
23291;DHT22;11814;44.686;10.842;2022-12-07T06:31:59;7.60;99.90
23291;DHT22;11814;44.686;10.842;2022-12-07T06:34:26;7.70;99.90
23291;DHT22;11814;44.686;10.842;2022-12-07T06:36:52;7.60;99.90
23291;DHT22;11814;44.686;10.842;2022-12-07T06:39:22;7.70;99.90
23291;DHT22;11814;44.686;10.842;2022-12-07T06:41:49;7.60;99.90
23291;DHT22;11814;44.686;10.842;2022-12-07T06:44:17;7.60;99.90
23291;DHT22;11814;44.686;10.842;2022-12-07T06:46:43;7.60;99.90
23291;DHT22;11814;44.686;10.842;2022-12-07T06:49:09;7.60;99.90
23291;DHT22;11814;44.686;10.842;2022-12-07T06:51:34;7.60;99.90
23291;DHT22;11814;44.686;10.842;2022-12-07T06:54:03;7.60;99.90
23291;DHT22;11814;44.686;10.842;2022-12-07T06:56:29;7.60;99.90
23291;DHT22;11814;44.686;10.842;2022-12-07T06:58:54;7.60;99.90
23291;DHT22;11814;44.686;10.842;2022-12-07T07:01:20;7.60;99.90
23291;DHT22;11814;44.686;10.842;2022-12-07T07:03:46;7.60;99.90
23291;DHT22;11814;44.686;10.842;2022-12-07T07:06:12;7.60;99.90
23291;DHT22;11814;44.686;10.842;2022-12-07T07:08:39;7.60;99.90
23291;DHT22;11814;44.686;10.842;2022-12-07T07:11:06;7.50;99.90
23291;DHT22;11814;44.686;10.842;2022-12-07T07:13:32;7.50;99.90
23291;DHT22;11814;44.686;10.842;2022-12-07T07:15:58;7.40;99.90
23291;DHT22;11814;44.686;10.842;2022-12-07T07:18:24;7.50;99.90
23291;DHT22;11814;44.686;10.842;2022-12-07T07:20:51;7.40;99.90
23291;DHT22;11814;44.686;10.842;2022-12-07T07:23:17;7.40;99.90
23291;DHT22;11814;44.686;10.842;2022-12-07T07:25:42;7.40;99.90
23291;DHT22;11814;44.686;10.842;2022-12-07T07:28:08;7.40;99.90
23291;DHT22;11814;44.686;10.842;2022-12-07T07:30:34;7.40;99.90
23291;DHT22;11814;44.686;10.842;2022-12-07T07:33:00;7.40;99.90
23291;DHT22;11814;44.686;10.842;2022-12-07T07:35:28;7.30;99.90
23291;DHT22;11814;44.686;10.842;2022-12-07T07:37:54;7.30;99.90
23291;DHT22;11814;44.686;10.842;2022-12-07T07:40:21;7.20;99.90
23291;DHT22;11814;44.686;10.842;2022-12-07T07:42:48;7.20;99.90
23291;DHT22;11814;44.686;10.842;2022-12-07T07:45:14;7.20;99.90
23291;DHT22;11814;44.686;10.842;2022-12-07T07:47:40;7.20;99.90
23291;DHT22;11814;44.686;10.842;2022-12-07T07:50:06;7.20;99.90
23291;DHT22;11814;44.686;10.842;2022-12-07T07:52:32;7.20;99.90
23291;DHT22;11814;44.686;10.842;2022-12-07T07:54:58;7.20;99.90
23291;DHT22;11814;44.686;10.842;2022-12-07T07:57:23;7.20;99.90
23291;DHT22;11814;44.686;10.842;2022-12-07T07:59:49;7.20;99.90
23291;DHT22;11814;44.686;10.842;2022-12-07T08:02:17;7.30;99.90
23291;DHT22;11814;44.686;10.842;2022-12-07T08:04:44;7.30;99.90
23291;DHT22;11814;44.686;10.842;2022-12-07T08:07:10;7.30;99.90
23291;DHT22;11814;44.686;10.842;2022-12-07T08:09:36;7.30;99.90
23291;DHT22;11814;44.686;10.842;2022-12-07T08:12:02;7.30;99.90
23291;DHT22;11814;44.686;10.842;2022-12-07T08:14:28;7.30;99.90
23291;DHT22;11814;44.686;10.842;2022-12-07T08:16:54;7.30;99.90
23291;DHT22;11814;44.686;10.842;2022-12-07T08:19:20;7.40;99.90
23291;DHT22;11814;44.686;10.842;2022-12-07T08:21:46;7.40;99.90
23291;DHT22;11814;44.686;10.842;2022-12-07T08:24:12;7.40;99.90
23291;DHT22;11814;44.686;10.842;2022-12-07T08:26:37;7.40;99.90
23291;DHT22;11814;44.686;10.842;2022-12-07T08:29:03;7.40;99.90
23291;DHT22;11814;44.686;10.842;2022-12-07T08:31:29;7.40;99.90
23291;DHT22;11814;44.686;10.842;2022-12-07T08:33:55;7.40;99.90
23291;DHT22;11814;44.686;10.842;2022-12-07T08:36:21;7.40;99.90
23291;DHT22;11814;44.686;10.842;2022-12-07T08:38:50;7.30;99.90
23291;DHT22;11814;44.686;10.842;2022-12-07T08:41:16;7.30;99.90
23291;DHT22;11814;44.686;10.842;2022-12-07T08:43:41;7.40;99.90
23291;DHT22;11814;44.686;10.842;2022-12-07T08:46:20;7.40;99.90
23291;DHT22;11814;44.686;10.842;2022-12-07T08:48:50;7.50;99.90
23291;DHT22;11814;44.686;10.842;2022-12-07T08:51:17;7.50;99.90
23291;DHT22;11814;44.686;10.842;2022-12-07T08:53:43;7.60;99.90
23291;DHT22;11814;44.686;10.842;2022-12-07T08:56:10;7.50;99.90
23291;DHT22;11814;44.686;10.842;2022-12-07T08:58:37;7.60;99.90
23291;DHT22;11814;44.686;10.842;2022-12-07T09:01:04;7.70;99.90
23291;DHT22;11814;44.686;10.842;2022-12-07T09:03:30;7.70;99.90
23291;DHT22;11814;44.686;10.842;2022-12-07T09:05:57;7.80;99.90
23291;DHT22;11814;44.686;10.842;2022-12-07T09:08:29;7.80;99.90
23291;DHT22;11814;44.686;10.842;2022-12-07T09:10:56;7.90;99.90
23291;DHT22;11814;44.686;10.842;2022-12-07T09:13:22;7.90;99.90
23291;DHT22;11814;44.686;10.842;2022-12-07T09:15:48;7.90;99.90
23291;DHT22;11814;44.686;10.842;2022-12-07T09:18:14;7.90;99.90
23291;DHT22;11814;44.686;10.842;2022-12-07T09:20:39;7.90;99.90
23291;DHT22;11814;44.686;10.842;2022-12-07T09:23:06;7.90;99.90
23291;DHT22;11814;44.686;10.842;2022-12-07T09:25:33;7.90;99.90
23291;DHT22;11814;44.686;10.842;2022-12-07T09:27:59;7.90;99.90
23291;DHT22;11814;44.686;10.842;2022-12-07T09:30:26;7.90;99.90
23291;DHT22;11814;44.686;10.842;2022-12-07T09:32:56;7.90;99.90
23291;DHT22;11814;44.686;10.842;2022-12-07T09:35:23;8.00;99.90
23291;DHT22;11814;44.686;10.842;2022-12-07T09:37:49;8.00;99.90
23291;DHT22;11814;44.686;10.842;2022-12-07T09:40:16;8.10;99.90
23291;DHT22;11814;44.686;10.842;2022-12-07T09:42:47;8.20;99.90
23291;DHT22;11814;44.686;10.842;2022-12-07T09:47:47;8.40;99.90
23291;DHT22;11814;44.686;10.842;2022-12-07T09:50:19;8.40;99.90
23291;DHT22;11814;44.686;10.842;2022-12-07T09:52:45;8.50;99.90
23291;DHT22;11814;44.686;10.842;2022-12-07T09:55:15;8.60;99.90
23291;DHT22;11814;44.686;10.842;2022-12-07T09:57:42;8.80;99.90
23291;DHT22;11814;44.686;10.842;2022-12-07T10:00:23;8.90;99.90
23291;DHT22;11814;44.686;10.842;2022-12-07T10:03:02;9.00;99.90
23291;DHT22;11814;44.686;10.842;2022-12-07T10:05:31;9.10;99.90
23291;DHT22;11814;44.686;10.842;2022-12-07T10:07:57;9.10;99.90
23291;DHT22;11814;44.686;10.842;2022-12-07T10:10:31;9.20;99.90
23291;DHT22;11814;44.686;10.842;2022-12-07T10:13:22;9.30;99.90
23291;DHT22;11814;44.686;10.842;2022-12-07T10:15:52;9.40;99.90
23291;DHT22;11814;44.686;10.842;2022-12-07T10:18:27;9.50;99.90
23291;DHT22;11814;44.686;10.842;2022-12-07T10:23:39;9.90;99.90
23291;DHT22;11814;44.686;10.842;2022-12-07T10:26:30;10.10;99.90
23291;DHT22;11814;44.686;10.842;2022-12-07T10:28:59;10.40;99.90
23291;DHT22;11814;44.686;10.842;2022-12-07T10:31:25;10.60;99.90
23291;DHT22;11814;44.686;10.842;2022-12-07T10:34:00;10.60;99.90
23291;DHT22;11814;44.686;10.842;2022-12-07T10:36:35;10.50;99.90
23291;DHT22;11814;44.686;10.842;2022-12-07T10:41:59;10.30;99.90
23291;DHT22;11814;44.686;10.842;2022-12-07T10:44:30;10.10;99.90
23291;DHT22;11814;44.686;10.842;2022-12-07T11:01:24;9.70;99.90
23291;DHT22;11814;44.686;10.842;2022-12-07T11:12:10;9.50;99.90
23291;DHT22;11814;44.686;10.842;2022-12-07T11:14:44;9.40;99.90
23291;DHT22;11814;44.686;10.842;2022-12-07T11:17:20;9.40;99.90
23291;DHT22;11814;44.686;10.842;2022-12-07T11:20:12;9.40;99.90
23291;DHT22;11814;44.686;10.842;2022-12-07T11:23:07;9.40;99.90
23291;DHT22;11814;44.686;10.842;2022-12-07T11:28:20;9.70;99.90
23291;DHT22;11814;44.686;10.842;2022-12-07T11:31:07;9.70;99.90
23291;DHT22;11814;44.686;10.842;2022-12-07T11:33:53;9.80;99.90
23291;DHT22;11814;44.686;10.842;2022-12-07T11:39:20;10.30;99.90
23291;DHT22;11814;44.686;10.842;2022-12-07T11:41:52;10.40;99.90
23291;DHT22;11814;44.686;10.842;2022-12-07T11:53:26;13.00;99.90
23291;DHT22;11814;44.686;10.842;2022-12-07T11:55:57;13.40;99.90
23291;DHT22;11814;44.686;10.842;2022-12-07T12:03:36;14.00;99.90
23291;DHT22;11814;44.686;10.842;2022-12-07T12:06:03;14.30;99.90
23291;DHT22;11814;44.686;10.842;2022-12-07T12:08:39;14.60;98.50
23291;DHT22;11814;44.686;10.842;2022-12-07T12:14:41;14.30;96.00
23291;DHT22;11814;44.686;10.842;2022-12-07T12:22:17;13.90;94.30
23291;DHT22;11814;44.686;10.842;2022-12-07T12:24:46;13.80;93.80
23291;DHT22;11814;44.686;10.842;2022-12-07T12:27:27;13.70;93.90
23291;DHT22;11814;44.686;10.842;2022-12-07T12:29:57;13.60;94.00
23291;DHT22;11814;44.686;10.842;2022-12-07T12:32:38;13.60;93.80
23291;DHT22;11814;44.686;10.842;2022-12-07T12:35:34;13.60;93.70
23291;DHT22;11814;44.686;10.842;2022-12-07T12:38:47;13.40;93.60
23291;DHT22;11814;44.686;10.842;2022-12-07T12:51:50;12.50;94.70
23291;DHT22;11814;44.686;10.842;2022-12-07T12:54:25;12.40;94.90
23291;DHT22;11814;44.686;10.842;2022-12-07T13:02:22;11.90;95.40
23291;DHT22;11814;44.686;10.842;2022-12-07T13:05:14;11.70;95.90
23291;DHT22;11814;44.686;10.842;2022-12-07T13:15:52;11.00;97.80
23291;DHT22;11814;44.686;10.842;2022-12-07T13:20:54;10.90;98.60
23291;DHT22;11814;44.686;10.842;2022-12-07T13:28:38;10.90;99.70
23291;DHT22;11814;44.686;10.842;2022-12-07T13:33:57;10.80;99.90
23291;DHT22;11814;44.686;10.842;2022-12-07T13:36:43;10.70;99.90
23291;DHT22;11814;44.686;10.842;2022-12-07T13:39:20;10.70;99.90
23291;DHT22;11814;44.686;10.842;2022-12-07T13:41:53;10.60;99.90
23291;DHT22;11814;44.686;10.842;2022-12-07T13:44:21;10.50;99.90
23291;DHT22;11814;44.686;10.842;2022-12-07T13:49:55;10.50;99.90
23291;DHT22;11814;44.686;10.842;2022-12-07T13:52:26;10.40;99.90
23291;DHT22;11814;44.686;10.842;2022-12-07T13:57:31;10.30;99.90
23291;DHT22;11814;44.686;10.842;2022-12-07T14:00:03;10.30;99.90
23291;DHT22;11814;44.686;10.842;2022-12-07T14:02:34;10.20;99.90
23291;DHT22;11814;44.686;10.842;2022-12-07T14:05:29;10.10;99.90
23291;DHT22;11814;44.686;10.842;2022-12-07T14:13:37;10.00;99.90
23291;DHT22;11814;44.686;10.842;2022-12-07T14:18:57;10.00;99.90
23291;DHT22;11814;44.686;10.842;2022-12-07T14:21:29;10.00;99.90
23291;DHT22;11814;44.686;10.842;2022-12-07T14:24:15;9.90;99.90
23291;DHT22;11814;44.686;10.842;2022-12-07T14:26:42;9.90;99.90
23291;DHT22;11814;44.686;10.842;2022-12-07T14:31:56;9.80;99.90
23291;DHT22;11814;44.686;10.842;2022-12-07T14:34:23;9.70;99.90
23291;DHT22;11814;44.686;10.842;2022-12-07T14:36:49;9.70;99.90
23291;DHT22;11814;44.686;10.842;2022-12-07T14:39:15;9.70;99.90
23291;DHT22;11814;44.686;10.842;2022-12-07T14:41:40;9.70;99.90
23291;DHT22;11814;44.686;10.842;2022-12-07T14:44:16;9.60;99.90
23291;DHT22;11814;44.686;10.842;2022-12-07T14:46:42;9.50;99.90
23291;DHT22;11814;44.686;10.842;2022-12-07T14:49:08;9.40;99.90
23291;DHT22;11814;44.686;10.842;2022-12-07T14:51:36;9.30;99.90
23291;DHT22;11814;44.686;10.842;2022-12-07T14:54:05;9.30;99.90
23291;DHT22;11814;44.686;10.842;2022-12-07T14:56:31;9.20;99.90
23291;DHT22;11814;44.686;10.842;2022-12-07T14:58:57;9.10;99.90
23291;DHT22;11814;44.686;10.842;2022-12-07T15:01:23;9.10;99.90
23291;DHT22;11814;44.686;10.842;2022-12-07T15:03:49;8.90;99.90
23291;DHT22;11814;44.686;10.842;2022-12-07T15:06:16;8.90;99.90
23291;DHT22;11814;44.686;10.842;2022-12-07T15:08:43;8.90;99.90
23291;DHT22;11814;44.686;10.842;2022-12-07T15:11:16;8.80;99.90
23291;DHT22;11814;44.686;10.842;2022-12-07T15:13:42;8.70;99.90
23291;DHT22;11814;44.686;10.842;2022-12-07T15:16:27;8.70;99.90
23291;DHT22;11814;44.686;10.842;2022-12-07T15:18:53;8.50;99.90
23291;DHT22;11814;44.686;10.842;2022-12-07T15:21:19;8.50;99.90
23291;DHT22;11814;44.686;10.842;2022-12-07T15:23:46;8.40;99.90
23291;DHT22;11814;44.686;10.842;2022-12-07T15:26:13;8.30;99.90
23291;DHT22;11814;44.686;10.842;2022-12-07T15:28:39;8.30;99.90
23291;DHT22;11814;44.686;10.842;2022-12-07T15:31:14;8.20;99.90
23291;DHT22;11814;44.686;10.842;2022-12-07T15:33:40;8.10;99.90
23291;DHT22;11814;44.686;10.842;2022-12-07T15:36:06;8.10;99.90
23291;DHT22;11814;44.686;10.842;2022-12-07T15:38:32;8.00;99.90
23291;DHT22;11814;44.686;10.842;2022-12-07T15:40:58;8.00;99.90
23291;DHT22;11814;44.686;10.842;2022-12-07T15:43:24;7.90;99.90
23291;DHT22;11814;44.686;10.842;2022-12-07T15:46:08;7.80;99.90
23291;DHT22;11814;44.686;10.842;2022-12-07T15:48:34;7.80;99.90
23291;DHT22;11814;44.686;10.842;2022-12-07T15:51:05;7.70;99.90
23291;DHT22;11814;44.686;10.842;2022-12-07T15:53:31;7.60;99.90
23291;DHT22;11814;44.686;10.842;2022-12-07T15:55:56;7.60;99.90
23291;DHT22;11814;44.686;10.842;2022-12-07T15:58:22;7.50;99.90
23291;DHT22;11814;44.686;10.842;2022-12-07T16:00:48;7.50;99.90
23291;DHT22;11814;44.686;10.842;2022-12-07T16:03:14;7.40;99.90
23291;DHT22;11814;44.686;10.842;2022-12-07T16:05:39;7.40;99.90
23291;DHT22;11814;44.686;10.842;2022-12-07T16:08:05;7.30;99.90
23291;DHT22;11814;44.686;10.842;2022-12-07T16:10:31;7.30;99.90
23291;DHT22;11814;44.686;10.842;2022-12-07T16:12:57;7.20;99.90
23291;DHT22;11814;44.686;10.842;2022-12-07T16:15:22;7.20;99.90
23291;DHT22;11814;44.686;10.842;2022-12-07T16:17:50;7.20;99.90
23291;DHT22;11814;44.686;10.842;2022-12-07T16:20:16;7.10;99.90
23291;DHT22;11814;44.686;10.842;2022-12-07T16:22:42;7.10;99.90
23291;DHT22;11814;44.686;10.842;2022-12-07T16:25:08;7.10;99.90
23291;DHT22;11814;44.686;10.842;2022-12-07T16:27:34;7.10;99.90
23291;DHT22;11814;44.686;10.842;2022-12-07T16:30:00;7.10;99.90
23291;DHT22;11814;44.686;10.842;2022-12-07T16:32:26;7.10;99.90
23291;DHT22;11814;44.686;10.842;2022-12-07T16:34:51;7.00;99.90
23291;DHT22;11814;44.686;10.842;2022-12-07T16:37:17;7.00;99.90
23291;DHT22;11814;44.686;10.842;2022-12-07T16:39:43;7.00;99.90
23291;DHT22;11814;44.686;10.842;2022-12-07T16:42:08;7.00;99.90
23291;DHT22;11814;44.686;10.842;2022-12-07T16:44:34;6.90;99.90
23291;DHT22;11814;44.686;10.842;2022-12-07T16:47:00;6.90;99.90
23291;DHT22;11814;44.686;10.842;2022-12-07T16:49:26;6.90;99.90
23291;DHT22;11814;44.686;10.842;2022-12-07T16:51:52;6.90;99.90
23291;DHT22;11814;44.686;10.842;2022-12-07T16:54:17;6.90;99.90
23291;DHT22;11814;44.686;10.842;2022-12-07T16:56:43;6.90;99.90
23291;DHT22;11814;44.686;10.842;2022-12-07T16:59:09;6.90;99.90
23291;DHT22;11814;44.686;10.842;2022-12-07T17:01:35;6.90;99.90
23291;DHT22;11814;44.686;10.842;2022-12-07T17:04:01;6.90;99.90
23291;DHT22;11814;44.686;10.842;2022-12-07T17:06:28;6.90;99.90
23291;DHT22;11814;44.686;10.842;2022-12-07T17:08:56;6.90;99.90
23291;DHT22;11814;44.686;10.842;2022-12-07T17:11:27;6.90;99.90
23291;DHT22;11814;44.686;10.842;2022-12-07T17:13:53;6.90;99.90
23291;DHT22;11814;44.686;10.842;2022-12-07T17:16:38;6.90;99.90
23291;DHT22;11814;44.686;10.842;2022-12-07T17:19:06;6.90;99.90
23291;DHT22;11814;44.686;10.842;2022-12-07T17:21:32;6.90;99.90
23291;DHT22;11814;44.686;10.842;2022-12-07T17:23:59;6.90;99.90
23291;DHT22;11814;44.686;10.842;2022-12-07T17:26:26;6.90;99.90
23291;DHT22;11814;44.686;10.842;2022-12-07T17:28:52;6.90;99.90
23291;DHT22;11814;44.686;10.842;2022-12-07T17:31:19;6.90;99.90
23291;DHT22;11814;44.686;10.842;2022-12-07T17:33:46;6.90;99.90
23291;DHT22;11814;44.686;10.842;2022-12-07T17:36:15;6.80;99.90
23291;DHT22;11814;44.686;10.842;2022-12-07T17:38:42;6.80;99.90
23291;DHT22;11814;44.686;10.842;2022-12-07T17:41:12;6.80;99.90
23291;DHT22;11814;44.686;10.842;2022-12-07T17:43:38;6.90;99.90
23291;DHT22;11814;44.686;10.842;2022-12-07T17:46:10;6.80;99.90
23291;DHT22;11814;44.686;10.842;2022-12-07T17:48:36;6.80;99.90
23291;DHT22;11814;44.686;10.842;2022-12-07T17:51:02;6.90;99.90
23291;DHT22;11814;44.686;10.842;2022-12-07T17:53:50;6.90;99.90
23291;DHT22;11814;44.686;10.842;2022-12-07T17:56:16;6.90;99.90
23291;DHT22;11814;44.686;10.842;2022-12-07T17:58:42;6.80;99.90
23291;DHT22;11814;44.686;10.842;2022-12-07T18:01:08;6.80;99.90